Time;durP1;ratioP1;P1;durP2;ratioP2;P2;SDS_P1;SDS_P2;PMS_P1;PMS_P2;Temp;Humidity;BMP_temperature;BMP_pressure;BME280_temperature;BME280_humidity;BME280_pressure;Samples;Min_cycle;Max_cycle;Signal;HPM_P1;HPM_P2
2021/07/27 00:02:13;;;;;;;6.17;2.20;;;;;;;19.41;48.29;101386.23;1680339;84;21292;-65
2021/07/27 00:04:46;;;;;;;7.25;2.17;;;;;;;19.39;48.22;101386.88;1678431;84;21269;-65
2021/07/27 00:07:19;;;;;;;7.25;2.33;;;;;;;19.38;47.76;101381.73;1680454;84;21761;-65
2021/07/27 00:09:52;;;;;;;8.13;2.12;;;;;;;19.36;47.09;101375.77;1682733;84;21303;-65
2021/07/27 00:12:26;;;;;;;11.20;2.33;;;;;;;19.37;46.93;101381.39;1680741;84;21241;-65
2021/07/27 00:14:59;;;;;;;14.13;2.83;;;;;;;19.37;47.70;101388.03;1652686;85;21304;-65
2021/07/27 00:17:33;;;;;;;18.27;2.83;;;;;;;19.34;48.91;101392.34;1679365;84;21316;-65
2021/07/27 00:20:08;;;;;;;7.92;2.20;;;;;;;19.29;49.05;101388.02;1684724;84;21201;-65
2021/07/27 00:22:42;;;;;;;4.03;2.70;;;;;;;19.23;48.82;101392.64;1680334;84;21296;-65
2021/07/27 00:25:16;;;;;;;11.45;2.87;;;;;;;19.16;49.05;101395.12;1651932;85;21220;-65
2021/07/27 00:27:48;;;;;;;;;;;;;;;19.11;49.28;101398.77;1655751;85;21335;-66
2021/07/27 00:30:22;;;;;;;9.53;2.80;;;;;;;19.01;49.25;101390.12;1650991;86;20179;-65
2021/07/27 00:32:56;;;;;;;8.90;2.75;;;;;;;18.89;49.63;101393.27;1686071;83;21320;-65
2021/07/27 00:35:31;;;;;;;7.00;2.95;;;;;;;18.76;49.93;101392.39;1651564;85;21359;-65
2021/07/27 00:38:12;;;;;;;7.40;2.35;;;;;;;18.65;50.06;101388.72;1685140;84;21368;-65
2021/07/27 00:40:46;;;;;;;9.88;2.42;;;;;;;18.57;50.21;101393.98;1644842;85;21299;-65
2021/07/27 00:43:22;;;;;;;6.03;2.20;;;;;;;18.49;50.46;101388.15;1650682;85;21848;-66
2021/07/27 00:45:55;;;;;;;6.30;2.50;;;;;;;18.41;50.70;101390.75;1648134;85;21360;-65
2021/07/27 00:48:29;;;;;;;6.83;2.35;;;;;;;18.33;50.91;101388.54;1684152;82;21284;-65
2021/07/27 00:51:02;;;;;;;4.87;2.47;;;;;;;18.24;51.00;101392.15;1683274;83;21323;-65
2021/07/27 00:53:36;;;;;;;5.10;2.40;;;;;;;18.15;51.10;101391.25;1685615;84;21300;-65
2021/07/27 00:56:10;;;;;;;6.78;2.33;;;;;;;18.07;51.25;101388.58;1653696;84;21353;-65
2021/07/27 00:58:43;;;;;;;4.85;2.35;;;;;;;17.99;51.49;101392.01;1683392;84;21293;-65
2021/07/27 01:01:17;;;;;;;3.95;2.35;;;;;;;17.92;51.80;101388.32;1686460;83;21332;-65
2021/07/27 01:03:50;;;;;;;9.43;2.80;;;;;;;17.86;52.11;101386.80;1685083;84;21300;-65
2021/07/27 01:06:24;;;;;;;6.22;2.42;;;;;;;17.80;52.32;101390.05;1684364;84;21217;-66
2021/07/27 01:08:57;;;;;;;8.55;2.52;;;;;;;17.73;52.49;101391.17;1651335;85;21198;-66
2021/07/27 01:11:30;;;;;;;6.42;2.83;;;;;;;17.67;52.67;101388.31;1628205;87;21232;-65
2021/07/27 01:14:03;;;;;;;6.65;2.40;;;;;;;17.63;52.86;101387.78;1654281;85;21293;-65
2021/07/27 01:16:37;;;;;;;8.58;2.72;;;;;;;17.57;52.91;101392.38;1681035;83;21283;-66
2021/07/27 01:44:06;;;;;;;5.62;2.67;;;;;;;17.08;54.10;101394.20;1680518;84;21293;-66
2021/07/27 01:46:39;;;;;;;6.42;2.90;;;;;;;17.01;54.32;101397.94;1681388;84;21880;-66
2021/07/27 01:49:12;;;;;;;5.30;2.67;;;;;;;16.98;54.55;101395.59;1684999;84;21209;-66
2021/07/27 01:51:46;;;;;;;4.22;2.30;;;;;;;16.96;54.70;101405.98;1679462;84;21289;-66
2021/07/27 01:54:28;;;;;;;9.43;2.60;;;;;;;16.93;54.83;101404.98;1676829;84;21197;-66
2021/07/27 01:56:54;;;;;;;4.28;2.75;;;;;;;16.89;54.92;101408.88;1677473;84;21173;-66
2021/07/27 01:59:27;;;;;;;4.90;3.13;;;;;;;16.87;55.07;101406.39;1676160;84;21396;-65
2021/07/27 02:02:00;;;;;;;7.33;2.37;;;;;;;16.84;55.20;101410.16;1680436;84;21506;-66
2021/07/27 02:04:34;;;;;;;6.53;2.95;;;;;;;16.81;55.22;101402.52;1679546;84;21776;-66
2021/07/27 02:07:07;;;;;;;5.22;2.70;;;;;;;16.81;55.26;101400.39;1681000;83;21352;-66
2021/07/27 02:09:43;;;;;;;11.38;2.40;;;;;;;16.80;55.37;101408.80;1669941;83;21289;-66
2021/07/27 02:12:22;;;;;;;6.75;2.33;;;;;;;16.81;55.45;101409.13;1653323;85;21309;-66
2021/07/27 02:15:06;;;;;;;4.35;2.50;;;;;;;16.84;55.49;101409.33;1679755;84;21284;-65
2021/07/27 02:17:39;;;;;;;8.43;2.58;;;;;;;16.84;55.46;101410.16;1683962;83;21827;-65
2021/07/27 02:20:13;;;;;;;5.35;2.20;;;;;;;16.86;55.47;101412.65;1680016;83;21169;-66
2021/07/27 02:22:46;;;;;;;7.65;2.08;;;;;;;16.89;55.54;101410.20;1679275;83;21296;-66
2021/07/27 02:25:20;;;;;;;7.60;2.80;;;;;;;16.92;55.57;101409.42;1653416;85;21289;-66
2021/07/27 02:27:52;;;;;;;3.92;2.00;;;;;;;16.96;55.46;101412.59;1649231;85;21887;-66
2021/07/27 02:30:41;;;;;;;4.00;2.60;;;;;;;17.00;55.41;101413.49;1652951;85;21260;-65
2021/07/27 02:33:08;;;;;;;4.25;2.30;;;;;;;17.05;55.30;101416.49;1654166;85;21296;-66
2021/07/27 02:35:41;;;;;;;6.20;2.37;;;;;;;17.12;55.27;101409.66;1652982;85;21205;-66
2021/07/27 02:38:15;;;;;;;6.03;2.37;;;;;;;17.19;55.04;101409.87;1652176;85;21355;-66
2021/07/27 02:40:48;;;;;;;9.93;3.10;;;;;;;17.28;54.95;101411.12;1680029;84;21333;-66
2021/07/27 02:43:21;;;;;;;4.35;2.42;;;;;;;17.37;54.81;101408.88;1682170;84;21324;-66
2021/07/27 02:45:54;;;;;;;;;;;;;;;17.48;54.63;101405.19;1684849;84;21158;-65
2021/07/27 02:48:27;;;;;;;9.03;2.60;;;;;;;17.60;54.51;101409.27;1681657;84;20190;-65
2021/07/27 02:51:01;;;;;;;3.98;2.30;;;;;;;17.71;54.27;101405.06;1677696;83;21273;-65
2021/07/27 02:53:34;;;;;;;6.65;2.75;;;;;;;17.83;53.95;101406.97;1683419;84;21295;-64
2021/07/27 02:56:08;;;;;;;6.33;3.00;;;;;;;17.98;53.76;101404.09;1686181;83;21354;-64
2021/07/27 02:58:41;;;;;;;6.20;2.55;;;;;;;18.10;53.50;101401.52;1683066;83;21295;-64
2021/07/27 03:01:14;;;;;;;9.85;2.55;;;;;;;18.24;53.13;101401.42;1653001;85;21392;-65
2021/07/27 03:03:49;;;;;;;9.48;2.72;;;;;;;18.39;52.82;101403.83;1686725;83;21240;-65
2021/07/27 03:06:22;;;;;;;6.58;2.30;;;;;;;18.53;52.54;101401.94;1651200;85;21352;-65
2021/07/27 03:11:28;;;;;;;7.28;2.25;;;;;;;18.83;52.02;101401.36;1684301;83;21296;-66
2021/07/27 03:14:02;;;;;;;5.37;2.33;;;;;;;18.97;51.63;101409.19;1682899;84;21341;-65
2021/07/27 03:16:35;;;;;;;7.33;2.73;;;;;;;19.08;51.33;101400.94;1686804;83;21332;-65
2021/07/27 03:19:09;;;;;;;10.32;2.25;;;;;;;19.19;50.96;101404.10;1677427;84;21190;-66
2021/07/27 03:21:42;;;;;;;6.40;2.70;;;;;;;19.29;50.73;101406.60;1680963;84;21271;-65
2021/07/27 03:24:15;;;;;;;7.00;2.53;;;;;;;19.37;50.47;101406.13;1684382;84;21290;-65
2021/07/27 03:26:49;;;;;;;8.08;2.58;;;;;;;19.49;50.31;101406.14;1687831;83;21272;-65
2021/07/27 03:29:22;;;;;;;8.73;2.42;;;;;;;19.62;50.20;101402.98;1652955;85;21339;-65
2021/07/27 03:31:55;;;;;;;6.33;2.50;;;;;;;19.76;49.89;101408.12;1649273;85;21201;-65
2021/07/27 03:34:28;;;;;;;8.13;2.53;;;;;;;19.91;49.34;101402.47;1682773;84;21315;-64
2021/07/27 03:37:02;;;;;;;8.33;2.92;;;;;;;20.12;49.04;101398.27;1681980;84;21597;-65
2021/07/27 03:39:35;;;;;;;6.37;2.60;;;;;;;20.49;48.42;101398.19;1678952;84;21277;-66
2021/07/27 03:42:10;;;;;;;5.65;2.50;;;;;;;20.91;47.52;101393.80;1680997;84;21293;-65
2021/07/27 03:44:43;;;;;;;5.62;2.42;;;;;;;21.31;46.82;101398.88;1686264;84;21301;-64
2021/07/27 03:47:17;;;;;;;7.45;2.45;;;;;;;21.64;46.14;101402.94;1686232;83;21297;-65
2021/07/27 03:49:50;;;;;;;4.15;2.62;;;;;;;22.05;45.44;101398.08;1651669;85;21292;-68
2021/07/27 03:52:23;;;;;;;7.97;2.47;;;;;;;22.65;44.18;101402.73;1653302;85;21336;-67
2021/07/27 03:54:56;;;;;;;4.78;2.25;;;;;;;23.25;42.96;101402.38;1651145;85;21196;-66
2021/07/27 03:57:29;;;;;;;6.50;2.17;;;;;;;23.87;42.05;101408.38;1648299;84;21301;-66
2021/07/27 04:00:03;;;;;;;7.80;2.00;;;;;;;24.46;40.82;101400.22;1650206;86;21296;-66
2021/07/27 04:02:36;;;;;;;7.65;2.20;;;;;;;25.06;39.73;101398.60;1680241;84;21297;-66
2021/07/27 04:05:09;;;;;;;4.95;2.40;;;;;;;25.64;38.55;101393.86;1628042;86;21288;-67
2021/07/27 04:07:43;;;;;;;7.90;2.17;;;;;;;26.25;37.21;101396.28;1649800;85;21301;-66
2021/07/27 04:10:17;;;;;;;7.15;2.58;;;;;;;26.81;36.27;101397.31;1631558;87;21177;-67
2021/07/27 04:12:51;;;;;;;7.78;2.47;;;;;;;27.36;35.25;101394.38;1682171;84;21164;-68
2021/07/27 04:15:33;;;;;;;9.55;2.95;;;;;;;27.89;34.23;101395.62;1680712;84;21209;-68
2021/07/27 04:18:06;;;;;;;12.80;3.08;;;;;;;28.41;33.60;101390.72;1651640;85;21202;-66
2021/07/27 04:20:39;;;;;;;11.05;2.87;;;;;;;28.98;32.44;101389.37;1683697;83;21201;-67
2021/07/27 04:23:15;;;;;;;18.45;2.70;;;;;;;29.51;31.69;101394.29;1680515;84;21205;-66
2021/07/27 04:25:48;;;;;;;9.83;2.37;;;;;;;30.02;30.86;101393.64;1684235;84;21293;-65
2021/07/27 04:28:21;;;;;;;8.65;2.95;;;;;;;30.54;29.92;101392.61;1682416;84;21237;-65
2021/07/27 04:30:55;;;;;;;11.25;3.15;;;;;;;30.95;29.17;101385.31;1683058;84;21348;-65
2021/07/27 04:33:35;;;;;;;6.90;2.60;;;;;;;31.39;28.60;101394.44;1679911;84;21332;-64
2021/07/27 04:36:09;;;;;;;9.93;3.08;;;;;;;31.85;27.92;101392.24;1650233;85;21308;-64
2021/07/27 04:38:42;;;;;;;7.22;2.77;;;;;;;32.34;27.07;101391.02;1654947;85;21359;-64
2021/07/27 04:41:15;;;;;;;12.37;2.77;;;;;;;32.76;26.65;101383.14;1683853;83;21295;-64
2021/07/27 04:43:49;;;;;;;7.70;2.60;;;;;;;33.20;25.91;101382.78;1649741;85;21233;-63
2021/07/27 04:46:22;;;;;;;7.67;2.50;;;;;;;33.62;25.50;101382.07;1633872;87;21221;-63
2021/07/27 04:48:55;;;;;;;;;;;;;;;34.09;24.99;101392.97;1651760;87;21387;-65
2021/07/27 04:51:29;;;;;;;8.83;2.60;;;;;;;34.50;24.32;101386.09;1625556;85;20316;-64
2021/07/27 04:54:04;;;;;;;5.15;2.27;;;;;;;34.88;23.87;101382.13;1629904;87;21335;-63
2021/07/27 04:56:37;;;;;;;9.05;3.30;;;;;;;35.29;23.44;101378.92;1684982;84;21233;-63
2021/07/27 04:59:10;;;;;;;13.40;4.30;;;;;;;35.73;23.26;101382.70;1677966;83;21315;-66
2021/07/27 05:01:43;;;;;;;10.88;4.65;;;;;;;36.22;22.82;101380.69;1645028;84;22256;-66
2021/07/27 05:04:16;;;;;;;14.07;5.33;;;;;;;36.70;22.28;101380.47;1641625;85;21280;-67
2021/07/27 05:06:49;;;;;;;8.53;3.27;;;;;;;37.17;21.58;101375.79;1671944;83;21315;-66
2021/07/27 05:09:24;;;;;;;12.03;3.30;;;;;;;37.70;21.22;101374.78;1678043;83;21367;-66
2021/07/27 05:11:59;;;;;;;7.15;2.70;;;;;;;38.10;20.78;101371.61;1681815;83;21925;-67
2021/07/27 05:14:33;;;;;;;9.20;3.00;;;;;;;38.48;20.26;101370.34;1669891;83;21334;-67
2021/07/27 05:17:10;;;;;;;10.88;2.37;;;;;;;38.90;19.67;101365.63;1672449;83;21322;-66
2021/07/27 05:19:54;;;;;;;5.37;2.42;;;;;;;39.32;19.08;101359.73;1674650;82;21419;-70
2021/07/27 05:22:28;;;;;;;11.70;3.15;;;;;;;39.68;19.08;101360.75;1676690;83;21358;-68
2021/07/27 05:25:02;;;;;;;11.75;3.20;;;;;;;40.10;18.28;101365.16;1670367;83;21197;-66
2021/07/27 05:27:36;;;;;;;8.98;2.92;;;;;;;40.28;17.41;101365.03;1673720;82;21197;-68
2021/07/27 05:30:12;;;;;;;5.97;3.65;;;;;;;40.31;16.00;101360.86;1676964;82;21326;-71
2021/07/27 05:32:45;;;;;;;8.63;2.30;;;;;;;40.38;16.21;101361.25;1676242;83;21386;-68
2021/07/27 05:35:20;;;;;;;5.80;2.00;;;;;;;40.35;15.83;101362.67;1663843;82;21283;-67
2021/07/27 05:37:55;;;;;;;9.60;2.30;;;;;;;40.46;15.66;101363.86;1681629;83;21303;-71
2021/07/27 05:40:30;;;;;;;7.53;2.37;;;;;;;40.62;15.54;101356.89;1672367;83;21347;-69
2021/07/27 05:43:03;;;;;;;3.12;1.37;;;;;;;40.75;15.22;101360.13;1617380;85;21420;-68
2021/07/27 05:45:36;;;;;;;7.00;1.82;;;;;;;40.76;15.10;101357.65;1625097;86;21169;-68
2021/07/27 05:48:12;;;;;;;9.30;2.00;;;;;;;40.84;15.14;101352.80;1625619;85;21314;-70
2021/07/27 05:50:46;;;;;;;2.35;1.50;;;;;;;41.13;14.91;101353.75;1629046;85;22632;-69
2021/07/27 05:53:20;;;;;;;5.25;1.57;;;;;;;41.37;14.49;101350.10;1636348;85;21248;-68
2021/07/27 05:55:53;;;;;;;5.47;1.67;;;;;;;41.61;14.62;101345.05;1624257;86;21282;-68
2021/07/27 05:58:27;;;;;;;9.28;1.62;;;;;;;41.96;13.97;101345.46;1669345;83;21359;-69
2021/07/27 06:01:02;;;;;;;3.98;1.55;;;;;;;42.22;13.64;101337.28;1663990;83;21232;-67
2021/07/27 06:03:40;;;;;;;4.90;1.98;;;;;;;42.37;13.35;101342.33;1606466;86;22804;-70
2021/07/27 06:06:19;;;;;;;6.50;1.55;;;;;;;42.53;13.16;101338.55;1673407;82;21248;-67
2021/07/27 06:09:10;;;;;;;3.90;1.65;;;;;;;42.46;12.96;101338.19;1678914;83;21319;-69
2021/07/27 06:12:17;;;;;;;5.00;1.80;;;;;;;42.30;12.71;101339.22;1633894;84;21199;-73
2021/07/27 06:14:59;;;;;;;5.70;1.80;;;;;;;42.30;13.03;101333.71;1606466;85;21491;-69
2021/07/27 06:17:32;;;;;;;6.70;1.98;;;;;;;42.54;12.94;101332.70;1617605;86;21702;-68
2021/07/27 06:20:07;;;;;;;26.00;4.35;;;;;;;42.64;12.49;101335.14;1631269;86;21193;-67
2021/07/27 06:22:40;;;;;;;5.08;1.70;;;;;;;42.87;12.60;101330.27;1620164;85;21338;-69
2021/07/27 06:25:13;;;;;;;5.00;1.70;;;;;;;43.08;12.46;101337.30;1635105;85;21339;-68
2021/07/27 06:27:46;;;;;;;11.05;1.90;;;;;;;43.34;12.03;101332.55;1644771;85;21320;-67
2021/07/27 06:30:20;;;;;;;10.18;1.80;;;;;;;43.43;11.91;101332.76;1627665;85;21676;-68
2021/07/27 06:32:53;;;;;;;2.58;1.45;;;;;;;43.46;11.36;101329.34;1622103;86;21369;-71
2021/07/27 06:35:26;;;;;;;4.87;1.77;;;;;;;43.34;11.08;101331.17;1669202;83;21322;-70
2021/07/27 06:37:59;;;;;;;4.47;1.70;;;;;;;43.31;11.56;101333.20;1680675;83;21325;-69
2021/07/27 06:40:32;;;;;;;5.42;1.42;;;;;;;43.37;11.33;101332.72;1675758;83;21209;-69
2021/07/27 06:43:06;;;;;;;3.85;1.20;;;;;;;43.59;11.37;101330.24;1674662;83;21402;-72
2021/07/27 06:45:39;;;;;;;3.92;1.80;;;;;;;43.69;10.69;101325.77;1683127;83;21283;-75
2021/07/27 06:48:12;;;;;;;2.85;1.60;;;;;;;43.60;11.17;101331.06;1667976;83;22530;-70
2021/07/27 06:50:47;;;;;;;3.15;1.42;;;;;;;43.80;11.26;101325.66;1665296;84;21313;-68
2021/07/27 06:53:20;;;;;;;18.50;2.95;;;;;;;43.98;10.71;101329.91;1677876;83;21374;-69
2021/07/27 06:55:55;;;;;;;13.53;3.12;;;;;;;43.91;10.58;101326.06;1679827;82;22053;-73
2021/07/27 06:58:28;;;;;;;14.63;3.50;;;;;;;44.04;10.57;101324.42;1681212;83;21359;-69
2021/07/27 07:01:07;;;;;;;8.15;2.20;;;;;;;44.21;10.56;101324.12;1673196;83;21370;-68
2021/07/27 07:03:41;;;;;;;30.97;5.37;;;;;;;44.38;9.87;101319.25;1677302;83;21721;-69
2021/07/27 07:06:16;;;;;;;4.33;1.80;;;;;;;44.40;10.26;101321.13;1666465;84;21463;-66
2021/07/27 07:08:49;;;;;;;7.25;2.00;;;;;;;44.47;9.60;101321.42;1684489;83;21212;-71
2021/07/27 07:11:22;;;;;;;3.75;2.00;;;;;;;44.58;9.59;101320.41;1672011;83;21766;-68
2021/07/27 07:13:55;;;;;;;2.15;1.70;;;;;;;44.73;9.65;101315.09;1651793;84;21358;-66
2021/07/27 07:16:29;;;;;;;4.72;1.70;;;;;;;44.81;9.43;101315.55;1619313;86;21481;-69
2021/07/27 07:19:02;;;;;;;6.42;1.77;;;;;;;44.77;9.32;101306.91;1634962;85;21300;-71
2021/07/27 07:21:35;;;;;;;4.03;2.27;;;;;;;44.81;9.52;101311.98;1678608;83;21902;-71
2021/07/27 07:24:08;;;;;;;5.78;2.40;;;;;;;44.89;9.46;101313.08;1672939;83;21354;-74
2021/07/27 07:26:41;;;;;;;8.63;2.30;;;;;;;45.10;9.22;101312.43;1664942;83;21359;-71
2021/07/27 07:29:15;;;;;;;3.60;1.92;;;;;;;45.35;8.99;101311.36;1649974;84;21240;-70
2021/07/27 07:31:49;;;;;;;10.93;2.83;;;;;;;45.56;8.82;101308.48;1636328;84;21383;-67
2021/07/27 07:34:25;;;;;;;2.12;1.75;;;;;;;45.79;8.93;101308.29;1629510;85;21239;-70
2021/07/27 07:36:58;;;;;;;4.83;2.02;;;;;;;46.05;8.44;101309.52;1626630;86;21322;-71
2021/07/27 07:39:32;;;;;;;8.35;1.98;;;;;;;46.18;8.56;101302.56;1631934;85;21365;-69
2021/07/27 07:42:05;;;;;;;5.83;2.40;;;;;;;46.21;8.48;101306.84;1674877;82;21336;-71
2021/07/27 07:44:39;;;;;;;3.92;2.20;;;;;;;46.28;8.69;101311.77;1678152;82;21256;-70
2021/07/27 07:47:12;;;;;;;13.35;3.00;;;;;;;46.27;8.44;101315.11;1679051;83;21232;-67
2021/07/27 07:49:45;;;;;;;7.10;3.30;;;;;;;46.18;8.55;101307.53;1651067;84;21315;-71
2021/07/27 07:52:18;;;;;;;3.60;2.30;;;;;;;46.17;8.31;101300.97;1681217;83;21351;-71
2021/07/27 07:54:51;;;;;;;6.05;2.95;;;;;;;45.94;8.54;101312.52;1660637;83;21866;-69
2021/07/27 07:57:26;;;;;;;4.42;2.50;;;;;;;45.65;8.52;101306.42;1672962;83;21296;-75
2021/07/27 08:00:02;;;;;;;5.83;2.15;;;;;;;45.30;8.50;101312.97;1668165;83;21141;-76
2021/07/27 08:02:37;;;;;;;2.87;2.45;;;;;;;44.99;8.77;101309.88;1648541;84;21362;-72
2021/07/27 08:05:11;;;;;;;7.75;2.50;;;;;;;44.84;8.71;101305.81;1674413;82;21830;-71
2021/07/27 08:07:44;;;;;;;8.45;2.55;;;;;;;44.67;9.03;101305.95;1677032;83;21221;-71
2021/07/27 08:10:17;;;;;;;4.80;1.90;;;;;;;44.43;9.10;101309.95;1676334;83;21247;-69
2021/07/27 08:12:50;;;;;;;5.70;2.05;;;;;;;44.18;9.12;101302.95;1661971;83;21322;-69
2021/07/27 08:15:26;;;;;;;4.92;2.47;;;;;;;43.85;9.61;101302.02;1673790;84;21216;-68
2021/07/27 08:18:03;;;;;;;16.40;5.10;;;;;;;43.47;9.47;101296.48;1649679;84;21334;-70
2021/07/27 08:20:36;;;;;;;10.88;3.02;;;;;;;43.14;9.83;101288.56;1616827;85;21296;-71
2021/07/27 08:23:10;;;;;;;8.18;2.60;;;;;;;43.10;9.70;101288.98;1672071;83;21284;-68
2021/07/27 08:25:43;;;;;;;3.17;2.20;;;;;;;43.32;9.82;101280.52;1671677;83;21874;-67
2021/07/27 08:28:16;;;;;;;20.95;6.95;;;;;;;43.45;9.87;101274.52;1672780;84;21347;-69
2021/07/27 08:30:49;;;;;;;18.52;6.12;;;;;;;43.49;10.04;101281.01;1666332;84;21191;-71
2021/07/27 08:33:25;;;;;;;7.70;2.72;;;;;;;43.57;9.97;101273.23;1674423;84;21216;-72
2021/07/27 08:35:58;;;;;;;4.50;2.12;;;;;;;43.67;10.55;101270.11;1680604;82;21299;-67
2021/07/27 08:38:35;;;;;;;8.43;2.58;;;;;;;43.77;9.73;101268.95;1671655;83;21728;-69
2021/07/27 08:41:09;;;;;;;5.15;2.25;;;;;;;43.65;10.30;101271.58;1686213;83;21359;-69
2021/07/27 08:43:42;;;;;;;52.58;4.97;;;;;;;43.58;9.73;101265.22;1652247;84;21216;-70
2021/07/27 08:46:16;;;;;;;10.82;2.50;;;;;;;43.48;9.83;101269.16;1623972;85;21338;-72
2021/07/27 08:48:49;;;;;;;4.37;2.50;;;;;;;43.22;9.71;101260.73;1631252;85;21329;-73
2021/07/27 08:51:23;;;;;;;4.15;2.90;;;;;;;42.88;10.06;101261.06;1678031;83;21177;-68
2021/07/27 08:53:56;;;;;;;8.00;2.80;;;;;;;42.68;10.32;101253.48;1647261;84;21653;-68
2021/07/27 08:56:30;;;;;;;3.72;2.40;;;;;;;42.50;10.57;101259.34;1658008;84;21365;-67
2021/07/27 08:59:03;;;;;;;11.40;3.12;;;;;;;42.41;9.76;101255.77;1668160;82;21160;-70
2021/07/27 09:01:38;;;;;;;6.17;2.80;;;;;;;41.99;9.79;101256.77;1679458;83;21236;-71
2021/07/27 09:04:11;;;;;;;18.15;3.30;;;;;;;41.55;10.24;101254.23;1682272;82;21210;-71
2021/07/27 09:06:46;;;;;;;8.28;2.60;;;;;;;41.53;10.85;101251.81;1680650;83;22264;-68
2021/07/27 09:09:21;;;;;;;7.33;3.00;;;;;;;41.47;11.07;101247.58;1676811;82;21221;-67
2021/07/27 09:11:54;;;;;;;5.25;2.70;;;;;;;41.28;11.14;101247.58;1678345;83;21299;-68
2021/07/27 09:14:28;;;;;;;6.10;2.80;;;;;;;40.95;11.11;101244.33;1672396;83;21573;-71
2021/07/27 09:17:01;;;;;;;4.67;2.72;;;;;;;40.61;11.40;101241.33;1670348;82;21354;-67
2021/07/27 09:19:42;;;;;;;5.45;2.67;;;;;;;40.59;11.59;101239.47;1674577;83;21214;-70
2021/07/27 09:22:15;;;;;;;8.55;2.80;;;;;;;40.47;11.84;101241.95;1670692;83;21241;-67
2021/07/27 09:24:48;;;;;;;4.58;3.15;;;;;;;40.30;11.31;101235.75;1672140;83;21282;-68
2021/07/27 09:27:29;;;;;;;9.53;3.12;;;;;;;40.03;11.80;101244.87;1674981;83;21325;-67
2021/07/27 09:30:02;;;;;;;14.65;3.70;;;;;;;39.81;11.90;101242.06;1680346;82;21335;-67
2021/07/27 09:32:35;;;;;;;7.90;3.45;;;;;;;39.37;12.29;101236.36;1664660;83;21358;-70
2021/07/27 09:35:09;;;;;;;4.45;3.10;;;;;;;38.98;12.16;101239.52;1677510;83;21331;-68
2021/07/27 09:37:42;;;;;;;5.10;3.02;;;;;;;38.54;12.50;101241.36;1630112;84;21257;-67
2021/07/27 09:40:16;;;;;;;6.00;3.37;;;;;;;38.29;13.14;101238.45;1618851;85;21940;-68
2021/07/27 09:42:51;;;;;;;4.10;3.02;;;;;;;38.18;13.61;101252.55;1618707;86;21258;-67
2021/07/27 09:45:25;;;;;;;;;;;;;;;37.87;13.45;101242.59;1682439;83;21203;-71
2021/07/27 09:47:57;;;;;;;6.90;2.98;;;;;;;37.40;13.87;101231.69;1648610;83;20301;-67
2021/07/27 09:50:31;;;;;;;8.85;2.98;;;;;;;36.99;14.95;101229.90;1680236;83;21203;-68
2021/07/27 09:53:04;;;;;;;5.30;3.22;;;;;;;36.81;14.80;101231.93;1677678;83;21342;-66
2021/07/27 09:55:39;;;;;;;6.37;2.87;;;;;;;36.47;14.68;101225.94;1677695;83;21296;-70
2021/07/27 09:58:12;;;;;;;11.40;3.37;;;;;;;36.10;14.80;101222.90;1673627;84;21280;-70
2021/07/27 10:01:06;;;;;;;12.05;3.42;;;;;;;35.93;15.58;101225.14;1672243;83;21883;-69
2021/07/27 10:04:01;;;;;;;6.50;3.10;;;;;;;35.63;15.97;101226.11;1673322;83;21312;-69
2021/07/27 10:06:39;;;;;;;10.88;3.77;;;;;;;35.37;15.57;101223.72;1653904;84;21452;-68
2021/07/27 10:09:13;;;;;;;8.43;3.02;;;;;;;35.27;16.58;101220.48;1649933;84;21136;-74
2021/07/27 10:11:46;;;;;;;12.00;3.50;;;;;;;35.14;16.62;101216.41;1669266;83;21351;-69
2021/07/27 10:14:19;;;;;;;6.22;3.27;;;;;;;35.03;16.95;101210.73;1673798;83;21295;-70
2021/07/27 10:16:58;;;;;;;10.20;3.52;;;;;;;34.88;16.61;101212.07;1650523;84;21251;-69
2021/07/27 10:19:46;;;;;;;29.20;4.55;;;;;;;34.74;17.06;101208.81;1667508;83;21323;-70
2021/07/27 10:22:19;;;;;;;7.67;3.35;;;;;;;34.63;16.71;101203.12;1662467;84;21260;-70
2021/07/27 10:24:53;;;;;;;5.42;3.80;;;;;;;34.38;16.52;101203.34;1679199;83;21260;-72
2021/07/27 10:27:26;;;;;;;4.53;3.45;;;;;;;34.16;16.54;101197.86;1645085;85;21346;-72
2021/07/27 10:30:07;;;;;;;4.85;3.60;;;;;;;34.06;16.87;101196.51;1616712;85;21224;-68
2021/07/27 10:32:56;;;;;;;6.85;3.55;;;;;;;34.04;16.98;101195.39;1674966;83;21386;-69
2021/07/27 10:35:34;;;;;;;6.00;3.08;;;;;;;34.10;16.94;101197.59;1666596;83;21336;-71
2021/07/27 10:38:11;;;;;;;4.83;3.22;;;;;;;34.20;17.17;101190.82;1670123;83;21284;-70
2021/07/27 10:40:45;;;;;;;9.23;3.42;;;;;;;34.26;16.91;101183.75;1638475;84;22526;-71
2021/07/27 10:43:27;;;;;;;6.05;3.50;;;;;;;34.25;16.95;101197.06;1674196;83;21296;-70
2021/07/27 10:46:01;;;;;;;3.45;2.85;;;;;;;34.15;16.44;101188.91;1682734;83;21299;-70
2021/07/27 10:48:39;;;;;;;10.08;3.40;;;;;;;33.98;16.47;101187.48;1672352;83;21852;-74
2021/07/27 10:51:12;;;;;;;5.30;3.08;;;;;;;33.86;17.43;101188.55;1647512;84;21346;-68
2021/07/27 10:53:45;;;;;;;8.98;3.22;;;;;;;33.74;17.32;101192.03;1642810;85;21431;-73
2021/07/27 10:56:18;;;;;;;7.90;3.55;;;;;;;33.58;17.76;101184.89;1613143;86;21905;-73
2021/07/27 10:58:50;;;;;;;;;;;;;;;33.54;17.50;101182.97;1676875;84;21221;-71
2021/07/27 11:01:23;;;;;;;4.85;3.37;;;;;;;33.51;17.69;101176.14;1673457;82;20242;-73
2021/07/27 11:04:09;;;;;;;6.33;3.40;;;;;;;33.47;17.63;101184.55;1607195;85;21352;-73
2021/07/27 11:06:42;;;;;;;4.25;3.25;;;;;;;33.38;17.64;101171.75;1670616;83;21304;-72
2021/07/27 11:09:15;;;;;;;8.18;2.95;;;;;;;33.34;17.63;101170.66;1673173;83;21323;-74
2021/07/27 11:11:50;;;;;;;3.33;2.85;;;;;;;33.34;17.58;101166.58;1672140;83;21185;-74
2021/07/27 11:14:23;;;;;;;7.80;3.25;;;;;;;33.32;17.63;101170.11;1673372;83;21141;-71
2021/07/27 11:16:57;;;;;;;6.17;3.12;;;;;;;33.28;18.15;101170.33;1672361;83;21319;-71
2021/07/27 11:19:32;;;;;;;7.30;3.80;;;;;;;33.23;18.74;101169.77;1644749;84;21363;-74
2021/07/27 11:22:04;;;;;;;6.37;3.20;;;;;;;33.19;18.65;101168.67;1631887;85;21334;-75
2021/07/27 11:24:38;;;;;;;8.98;3.35;;;;;;;33.20;18.91;101162.15;1638490;84;21320;-72
2021/07/27 11:27:19;;;;;;;7.00;2.87;;;;;;;33.20;18.45;101157.55;1627501;86;21322;-70
2021/07/27 11:30:02;;;;;;;10.32;3.35;;;;;;;33.14;18.54;101160.50;1665874;84;21291;-72
2021/07/27 11:32:44;;;;;;;7.08;3.10;;;;;;;33.06;18.10;101156.38;1675014;83;21264;-72
2021/07/27 11:35:24;;;;;;;5.20;2.83;;;;;;;33.03;18.54;101157.47;1673784;82;21200;-71
2021/07/27 11:38:07;;;;;;;6.10;3.00;;;;;;;32.91;18.23;101160.31;1682648;83;22474;-72
2021/07/27 11:40:40;;;;;;;5.65;3.35;;;;;;;32.82;18.40;101154.28;1659982;83;21268;-72
2021/07/27 11:43:13;;;;;;;4.55;3.40;;;;;;;32.81;18.73;101150.78;1671645;82;21379;-74
2021/07/27 11:45:46;;;;;;;7.17;3.05;;;;;;;32.78;18.52;101150.47;1673379;84;21293;-71
2021/07/27 11:48:20;;;;;;;;;;;;;;;32.72;18.23;101141.47;1674551;83;21306;-71
2021/07/27 11:50:57;;;;;;;4.92;3.42;;;;;;;32.70;18.78;101140.92;1676187;83;20304;-71
2021/07/27 11:53:37;;;;;;;4.15;3.20;;;;;;;32.73;18.93;101140.41;1661629;83;21331;-71
2021/07/27 11:56:17;;;;;;;6.53;4.12;;;;;;;32.68;18.99;101141.73;1678090;83;21651;-71
2021/07/27 11:58:52;;;;;;;6.95;3.45;;;;;;;32.60;19.40;101145.73;1670785;83;21351;-72
2021/07/27 12:01:27;;;;;;;6.03;3.15;;;;;;;32.53;19.14;101140.25;1651128;83;21268;-73
2021/07/27 12:04:00;;;;;;;6.03;3.40;;;;;;;32.45;19.22;101136.64;1612806;86;21404;-73
2021/07/27 12:06:35;;;;;;;7.00;3.42;;;;;;;32.38;18.78;101138.76;1668541;83;21335;-73
2021/07/27 12:09:09;;;;;;;9.48;3.40;;;;;;;32.33;18.80;101129.23;1679921;82;21324;-73
2021/07/27 12:11:43;;;;;;;5.20;3.70;;;;;;;32.30;18.61;101125.14;1656091;84;21334;-72
2021/07/27 12:14:17;;;;;;;8.65;3.33;;;;;;;32.29;18.83;101128.91;1643974;85;21347;-74
2021/07/27 12:16:50;;;;;;;14.07;7.75;;;;;;;32.27;18.93;101122.94;1643769;84;21371;-74
2021/07/27 12:19:23;;;;;;;17.12;9.60;;;;;;;32.26;19.12;101120.50;1615617;85;21355;-72
2021/07/27 12:21:58;;;;;;;10.38;5.25;;;;;;;32.20;19.09;101120.98;1621733;86;21273;-74
2021/07/27 12:24:31;;;;;;;6.78;3.62;;;;;;;32.14;19.08;101127.97;1636997;84;21379;-73
2021/07/27 12:27:04;;;;;;;10.03;3.98;;;;;;;32.03;19.03;101114.86;1651241;84;21357;-74
2021/07/27 12:29:37;;;;;;;7.17;5.15;;;;;;;31.99;19.62;101112.92;1645502;84;21283;-73